Nearby METAR Reports

 

KORH - Worcester, Massachusetts, USA
Distance from station: NW 4mi, 7km
Updated: Fri, 16-Nov-2018 11:54pm EST
Partly cloudy
Partly cloudy
 Wind from W
Wind: W 18 mph , 30 km/h, Gust: 29 mph , 46 km/h
Temperature: 36°F , 2°C
Wind Chill: 26°F , -3°C
Dew Point: 28°F , -2°C
Humidity: 75%
Barometer: 29.77 inHg , 1008.1 hPa
Clouds: Partly cloudy
Visibility: 10 miles , 16 km
Cloud details: Partly cloudy 3500 ft
2018/11/17 04:54 KORH 170454Z 26016G25KT 10SM SCT035 02/M02 A2977 RMK AO2 SLP092 T00171017 400171044
KBOS - Boston, Massachusetts, USA
Distance from station: ENE 42mi, 68km
Updated: Fri, 16-Nov-2018 11:54pm EST
Few Clouds
Few Clouds
 Wind from WSW
Wind: WSW 16 mph , 26 km/h
Temperature: 39°F , 4°C
Wind Chill: 30°F , -1°C
Dew Point: 30°F , -1°C
Humidity: 70%
Barometer: 29.80 inHg , 1009.1 hPa
Clouds: Few Clouds
Visibility: 10 miles , 16 km
Cloud details: Few Clouds 3500 ft
2018/11/17 04:54 KBOS 170454Z 24014KT 10SM FEW035 04/M01 A2980 RMK AO2 SLP090 T00391011 400780017
 
KCQX - Chatham, Massachusetts, USA
Distance from station: SE 102mi, 164km
Updated: Fri, 16-Nov-2018 11:52pm EST
Clear
Clear
 Wind from W
Wind: W 12 mph , 19 km/h, Gust: 18 mph , 30 km/h
Temperature: 39°F , 4°C
Wind Chill: 32°F , 0°C
Dew Point: 30°F , -1°C
Humidity: 70%
Barometer: 29.83 inHg , 1010.2 hPa
Clouds: Clear
Visibility: 10 miles , 16 km
2018/11/17 04:52 KCQX 170452Z AUTO 26010G16KT 10SM CLR 04/M01 A2983 RMK AO2 SLP104 T00391006 401170017
KMVY - Marthas Vineyard, Massachusetts, USA
Distance from station: SE 84mi, 135km
Updated: Fri, 16-Nov-2018 11:53pm EST
Overcast
Overcast
 Wind from W
Wind: W 16 mph , 26 km/h, Gust: 26 mph , 43 km/h
Temperature: 45°F , 7°C
Wind Chill: 38°F , 3°C
Dew Point: 32°F , 0°C
Humidity: 61%
Barometer: 29.85 inHg , 1010.8 hPa
Clouds: Overcast
Visibility: 10 miles , 16 km
Cloud details: Overcast 4100 ft
2018/11/17 04:53 KMVY 170453Z AUTO 28014G23KT 10SM OVC041 07/00 A2985 RMK AO2 PK WND 31030/0428 SLP108 T00670000 401170028
 
KPVC - Provincetown, Massachusetts, USA
Distance from station: NNW 85mi, 136km
Updated: Fri, 16-Nov-2018 11:56pm EST
Clear
Clear
 Wind from W
Wind: W 23 mph , 37 km/h, Gust: 30 mph , 48 km/h
Temperature: 41°F , 5°C
Wind Chill: 31°F , -1°C
Dew Point: 34°F , 1°C
Humidity: 76%
Barometer: 29.81 inHg , 1009.5 hPa
Clouds: Clear
Visibility: 10 miles , 16 km
2018/11/17 04:56 KPVC 170456Z AUTO 26020G26KT 10SM CLR 05/01 A2981 RMK AO2 PK WND 26029/0426 SLP092 T00500006 401110006
KAQW - Savoy, Massachusetts, USA
Distance from station: NNW 66mi, 106km
Updated: Fri, 16-Nov-2018 11:52pm EST
Overcast
Overcast
 Wind from W
Wind: W 13 mph , 20 km/h, Gust: 24 mph , 39 km/h
Temperature: 37°F , 3°C
Wind Chill: 29°F , -2°C
Dew Point: 30°F , -1°C
Humidity: 75%
Barometer: 29.84 inHg , 1010.5 hPa
Clouds: Overcast
Visibility: 10 miles , 16 km
Cloud details: Overcast 2500 ft
2018/11/17 04:52 KAQW 170452Z AUTO 28011G21KT 10SM OVC025 03/M01 A2984 RMK AO2 SLP111 T00281011 400331022
 
KIZG - Fryeburg, Maine, USA
Distance from station: NNE 133mi, 214km
Updated: Fri, 16-Nov-2018 11:54pm EST
Overcast
Overcast
 Wind from WSW
Wind: WSW 3 mph , 6 km/h
Temperature: 30°F , -1°C
Dew Point: 28°F , -2°C
Humidity: 93%
Barometer: 29.67 inHg , 1004.7 hPa
Clouds: Overcast
Visibility: 10 miles , 16 km
Cloud details: Overcast 3900 ft
2018/11/17 04:54 KIZG 170454Z AUTO 24003KT 10SM OVC039 M01/M02 A2967 RMK AO2 SLP054 T10061022 400061061
KMWN - Mt Washington, New Hampshire, USA
Distance from station: NNE 146mi, 234km
Updated: Fri, 16-Nov-2018 10:54pm EST
NOT Current
Light snow, Freezing, Fog, Blowing, Snow, Overcast
Light snow, Freezing, Fog, Blowing, Snow, Overcast
 Wind from WNW
Wind: WNW 79 mph , 128 km/h, Gust: 90 mph , 144 km/h
Temperature: 12°F , -11°C
Wind Chill: -18°F , -28°C
Dew Point: 12°F , -11°C
Humidity: 100%
Summary: Light snow, Freezing, Fog, Blowing, Snow
Clouds: Overcast
Visibility: 0 miles , 0 km
Cloud details: Overcast 0 ft
2018/11/17 03:54 KMWN 170354Z 29069G78KT 0SM -SN FZFG BLSN VV000 M11/M11 RMK VRY LGT ICG
 
KBML - Berlin, New Hampshire, USA
Distance from station: NNE 160mi, 257km
Updated: Fri, 16-Nov-2018 11:52pm EST
Overcast
Overcast
 Wind from varies
Wind: varies 5 mph , 7 km/h
Temperature: 30°F , -1°C
Wind Chill: 25°F , -4°C
Dew Point: 27°F , -3°C
Humidity: 86%
Barometer: 29.65 inHg , 1004.1 hPa
Clouds: Overcast
Visibility: 10 miles , 16 km
Cloud details: Overcast 2000 ft
2018/11/17 04:52 KBML 170452Z AUTO VRB04KT 10SM OVC020 M01/M03 A2965 RMK AO2 SLP055 T10061033 410061067